Time;durP1;ratioP1;P1;durP2;ratioP2;P2;SDS_P1;SDS_P2;PMS_P1;PMS_P2;Temp;Humidity;BMP_temperature;BMP_pressure;BME280_temperature;BME280_humidity;BME280_pressure;Samples;Min_cycle;Max_cycle;Signal;HPM_P1;HPM_P2
2022/04/04 00:02:05;;;;;;;5.63;5.13;;;5.80;79.90;;;;;;5054181;28;20478;-65
2022/04/04 00:04:32;;;;;;;5.47;4.47;;;5.90;79.80;;;;;;5054319;28;20441;-65
2022/04/04 00:07:02;;;;;;;6.83;5.37;;;5.90;79.40;;;;;;5054227;28;20442;-65
2022/04/04 00:09:29;;;;;;;6.80;4.27;;;5.80;79.20;;;;;;5054132;28;20434;-66
2022/04/04 00:11:56;;;;;;;9.17;4.63;;;5.80;79.70;;;;;;5053472;28;20457;-66
2022/04/04 00:14:23;;;;;;;8.67;4.90;;;5.70;79.80;;;;;;5053810;28;20441;-65
2022/04/04 00:16:50;;;;;;;4.70;4.20;;;5.80;80.10;;;;;;5055004;28;20485;-65
2022/04/04 00:19:17;;;;;;;8.43;4.90;;;5.80;80.60;;;;;;5053642;28;20552;-66
2022/04/04 00:21:44;;;;;;;5.57;5.03;;;5.80;80.90;;;;;;5054157;28;20473;-66
2022/04/04 00:24:12;;;;;;;6.30;4.57;;;5.80;81.00;;;;;;5053837;28;20445;-65
2022/04/04 00:26:39;;;;;;;6.30;4.70;;;5.90;81.00;;;;;;5053718;28;20465;-66
2022/04/04 00:29:06;;;;;;;8.90;5.20;;;5.90;80.90;;;;;;5053597;28;20458;-66
2022/04/04 00:31:32;;;;;;;6.27;5.27;;;5.90;80.60;;;;;;5053179;28;20464;-66
2022/04/04 00:33:59;;;;;;;11.37;4.60;;;5.90;80.20;;;;;;5053708;28;20457;-65
2022/04/04 00:36:26;;;;;;;6.67;4.53;;;6.00;80.10;;;;;;5053145;28;20980;-65
2022/04/04 00:38:53;;;;;;;6.00;5.00;;;5.90;79.90;;;;;;5053374;28;20526;-65
2022/04/04 00:41:21;;;;;;;5.30;4.80;;;5.90;79.70;;;;;;5053422;28;20469;-66
2022/04/04 00:43:51;;;;;;;7.03;4.57;;;5.90;79.40;;;;;;5053284;28;20454;-66
2022/04/04 00:46:18;;;;;;;6.13;4.13;;;5.90;79.50;;;;;;5053195;28;20434;-66
2022/04/04 00:48:45;;;;;;;8.80;4.10;;;5.80;79.50;;;;;;5053567;28;20472;-65
2022/04/04 00:51:12;;;;;;;9.90;4.50;;;5.80;80.20;;;;;;5053204;28;20465;-66
2022/04/04 00:53:40;;;;;;;6.17;4.10;;;5.80;80.30;;;;;;5053273;28;20441;-66
2022/04/04 00:56:09;;;;;;;8.33;4.83;;;5.80;80.30;;;;;;5053173;28;20477;-66
2022/04/04 00:58:38;;;;;;;5.73;4.77;;;5.80;80.40;;;;;;5053313;28;20532;-65
2022/04/04 01:01:06;;;;;;;6.53;4.97;;;5.80;80.60;;;;;;5053195;28;20491;-65
2022/04/04 01:03:33;;;;;;;7.07;5.60;;;5.80;80.70;;;;;;5052976;28;20453;-66
2022/04/04 01:05:59;;;;;;;6.63;4.63;;;5.80;80.80;;;;;;5053187;28;20442;-66
2022/04/04 01:08:26;;;;;;;5.93;5.30;;;5.80;80.90;;;;;;5053222;28;20526;-66
2022/04/04 01:10:53;;;;;;;7.90;5.63;;;5.80;81.10;;;;;;5053057;28;20481;-66
2022/04/04 01:13:20;;;;;;;6.53;5.40;;;5.80;81.10;;;;;;5053053;28;20453;-66
2022/04/04 01:15:48;;;;;;;7.00;5.70;;;5.80;81.20;;;;;;5052925;28;20492;-66
2022/04/04 01:18:15;;;;;;;9.07;5.57;;;5.80;81.30;;;;;;5052960;28;20461;-66
2022/04/04 01:20:41;;;;;;;7.23;5.17;;;5.80;80.90;;;;;;5052975;28;20441;-66
2022/04/04 01:23:08;;;;;;;14.03;5.80;;;5.70;81.00;;;;;;5053047;28;20529;-66
2022/04/04 01:25:36;;;;;;;8.53;5.80;;;5.80;81.40;;;;;;5052929;28;20453;-66
2022/04/04 01:28:05;;;;;;;6.60;6.00;;;5.70;81.50;;;;;;5053230;28;20472;-66
2022/04/04 01:30:33;;;;;;;8.23;6.13;;;5.70;81.50;;;;;;5055579;28;20457;-66
2022/04/04 01:33:00;;;;;;;7.50;5.97;;;5.70;81.60;;;;;;5056835;28;20449;-66
2022/04/04 01:35:27;;;;;;;8.40;5.50;;;5.70;81.70;;;;;;5056753;28;20454;-66
2022/04/04 01:37:53;;;;;;;9.50;6.17;;;5.70;82.00;;;;;;5056746;28;20446;-65
2022/04/04 01:40:20;;;;;;;6.20;5.53;;;5.60;81.70;;;;;;5056121;28;20450;-66
2022/04/04 01:42:51;;;;;;;8.73;5.70;;;5.60;81.80;;;;;;5056527;28;20492;-66
2022/04/04 01:45:18;;;;;;;13.13;6.00;;;5.60;81.90;;;;;;5057150;28;20811;-66
2022/04/04 01:47:45;;;;;;;6.50;5.90;;;5.60;82.10;;;;;;5056567;28;20433;-66
2022/04/04 01:50:12;;;;;;;11.53;6.13;;;5.60;82.20;;;;;;5056657;28;20484;-66
2022/04/04 01:52:39;;;;;;;9.90;6.30;;;5.60;82.30;;;;;;5056034;28;20988;-66
2022/04/04 01:55:07;;;;;;;8.70;6.23;;;5.60;82.30;;;;;;5056433;28;20457;-66
2022/04/04 01:57:35;;;;;;;7.40;6.30;;;5.50;83.00;;;;;;5056261;28;20572;-66
2022/04/04 02:00:05;;;;;;;6.20;5.70;;;5.50;82.50;;;;;;5055966;28;20489;-66
2022/04/04 02:02:32;;;;;;;10.03;6.07;;;5.50;82.70;;;;;;5056270;28;20480;-66
2022/04/04 02:04:58;;;;;;;7.47;6.03;;;5.40;82.80;;;;;;5056340;28;20445;-66
2022/04/04 02:07:25;;;;;;;7.77;6.30;;;5.40;83.00;;;;;;5056140;28;20601;-66
2022/04/04 02:09:53;;;;;;;11.47;6.67;;;5.40;83.30;;;;;;5055808;28;20552;-65
2022/04/04 02:12:20;;;;;;;8.63;6.30;;;5.40;83.40;;;;;;5055688;28;20853;-65
2022/04/04 02:14:47;;;;;;;8.40;5.70;;;5.40;83.80;;;;;;5055755;28;20450;-66
2022/04/04 02:17:15;;;;;;;9.80;7.40;;;5.40;83.70;;;;;;5055836;28;20488;-66
2022/04/04 02:19:41;;;;;;;10.50;6.53;;;5.40;83.80;;;;;;5055619;28;20457;-66
2022/04/04 02:22:10;;;;;;;13.17;6.50;;;5.40;83.90;;;;;;5055955;28;20473;-65
2022/04/04 02:24:37;;;;;;;12.37;7.03;;;5.40;84.10;;;;;;5055793;28;20948;-66
2022/04/04 02:27:05;;;;;;;12.23;9.63;;;5.30;84.10;;;;;;5056000;28;20434;-66
2022/04/04 02:29:31;;;;;;;10.20;6.80;;;5.30;84.50;;;;;;5055655;28;20963;-66
2022/04/04 02:31:58;;;;;;;7.37;6.67;;;5.30;84.50;;;;;;5055892;28;20527;-65
2022/04/04 02:34:26;;;;;;;7.80;7.00;;;5.30;84.70;;;;;;5055624;28;20452;-65
2022/04/04 02:36:53;;;;;;;8.13;6.73;;;5.30;84.80;;;;;;5055553;28;20485;-65
2022/04/04 02:39:20;;;;;;;7.80;7.10;;;5.20;85.00;;;;;;5055509;28;20445;-65
2022/04/04 02:41:46;;;;;;;9.13;7.93;;;5.20;85.10;;;;;;5054372;28;20549;-65
2022/04/04 02:44:13;;;;;;;8.77;7.87;;;5.20;85.10;;;;;;5055480;28;20453;-65
2022/04/04 02:46:40;;;;;;;9.00;8.10;;;5.20;85.00;;;;;;5055443;28;20446;-65
2022/04/04 02:49:07;;;;;;;10.70;7.80;;;5.20;85.10;;;;;;5055385;28;20448;-66
2022/04/04 02:51:35;;;;;;;8.23;7.40;;;5.20;85.20;;;;;;5055235;28;20474;-65
2022/04/04 02:54:01;;;;;;;11.17;8.60;;;5.20;85.30;;;;;;5055312;28;20457;-66
2022/04/04 02:56:30;;;;;;;17.90;9.83;;;5.10;85.40;;;;;;5055234;28;20517;-66
2022/04/04 02:59:02;;;;;;;12.20;9.40;;;5.10;85.50;;;;;;5055194;28;20448;-66
2022/04/04 03:01:29;;;;;;;10.30;9.00;;;5.10;85.80;;;;;;5055261;28;20461;-65
2022/04/04 03:03:56;;;;;;;11.27;8.03;;;5.10;85.90;;;;;;5055125;28;20453;-65
2022/04/04 03:06:23;;;;;;;11.27;9.93;;;5.10;86.00;;;;;;5055072;28;20452;-65
2022/04/04 03:08:51;;;;;;;11.80;9.40;;;5.00;86.50;;;;;;5054971;28;20909;-65
2022/04/04 03:11:18;;;;;;;13.37;8.77;;;5.00;86.50;;;;;;5054967;28;20834;-65
2022/04/04 03:13:45;;;;;;;12.70;10.20;;;5.00;86.60;;;;;;5054917;28;20438;-65
2022/04/04 03:16:12;;;;;;;14.97;9.33;;;5.00;86.70;;;;;;5054469;28;20465;-65
2022/04/04 03:18:40;;;;;;;11.00;9.90;;;5.00;87.10;;;;;;5054312;28;20863;-66
2022/04/04 03:21:08;;;;;;;12.80;9.70;;;5.00;87.10;;;;;;5054859;28;20469;-66
2022/04/04 03:23:39;;;;;;;14.83;9.70;;;5.00;87.10;;;;;;5054749;28;20441;-65
2022/04/04 03:26:08;;;;;;;13.00;11.23;;;5.00;87.20;;;;;;5054447;28;20426;-65
2022/04/04 03:28:35;;;;;;;12.00;10.10;;;5.00;87.20;;;;;;5054372;28;20791;-65
2022/04/04 03:31:04;;;;;;;11.20;9.90;;;5.00;87.10;;;;;;5054533;28;20832;-66
2022/04/04 03:33:31;;;;;;;15.00;10.27;;;4.90;87.30;;;;;;5054413;28;20824;-65
2022/04/04 03:35:58;;;;;;;13.40;10.67;;;4.90;87.30;;;;;;5054495;28;20449;-65
2022/04/04 03:38:25;;;;;;;11.97;10.00;;;4.90;87.60;;;;;;5054343;28;20914;-65
2022/04/04 03:40:52;;;;;;;11.43;10.07;;;4.90;87.80;;;;;;5053990;28;20976;-65
2022/04/04 03:43:21;;;;;;;13.10;10.40;;;4.90;88.10;;;;;;5054330;28;20457;-66
2022/04/04 03:45:47;;;;;;;13.13;11.60;;;4.90;88.20;;;;;;5054071;28;21070;-65
2022/04/04 03:48:15;;;;;;;16.00;10.77;;;4.80;87.90;;;;;;5054370;28;20852;-66
2022/04/04 03:50:43;;;;;;;10.43;9.40;;;4.90;88.10;;;;;;5054547;28;20495;-65
2022/04/04 03:53:10;;;;;;;13.60;9.93;;;5.00;87.70;;;;;;5054002;28;20445;-65
2022/04/04 03:55:39;;;;;;;11.43;10.33;;;5.00;87.60;;;;;;5053764;28;20987;-65
2022/04/04 03:58:08;;;;;;;11.60;10.10;;;5.00;87.30;;;;;;5054117;28;20473;-65
2022/04/04 04:00:37;;;;;;;11.27;9.43;;;5.00;87.80;;;;;;5054026;28;20453;-65
2022/04/04 04:03:05;;;;;;;11.17;9.60;;;4.90;87.60;;;;;;5054081;28;20449;-66
2022/04/04 04:05:32;;;;;;;11.73;9.43;;;4.90;87.50;;;;;;5053720;28;20952;-65
2022/04/04 04:07:58;;;;;;;11.20;8.50;;;5.00;87.70;;;;;;5053786;28;20445;-66
2022/04/04 04:10:25;;;;;;;14.40;10.77;;;5.00;87.50;;;;;;5053922;28;20434;-65
2022/04/04 04:12:52;;;;;;;12.17;9.20;;;5.00;87.20;;;;;;5053774;28;20829;-65
2022/04/04 04:15:20;;;;;;;14.00;9.23;;;5.00;87.20;;;;;;5053793;28;20449;-65
2022/04/04 04:17:51;;;;;;;12.37;9.50;;;5.00;87.10;;;;;;5053665;28;20483;-65
2022/04/04 04:20:23;;;;;;;9.93;8.83;;;5.00;86.80;;;;;;5053527;28;20469;-65
2022/04/04 04:22:52;;;;;;;19.63;10.87;;;4.90;86.70;;;;;;5054543;28;20425;-65
2022/04/04 04:25:19;;;;;;;16.63;9.90;;;5.00;86.60;;;;;;5055091;28;20483;-65
2022/04/04 04:27:46;;;;;;;14.63;10.70;;;5.00;86.30;;;;;;5053812;28;20959;-65
2022/04/04 04:30:15;;;;;;;18.00;10.43;;;5.00;86.30;;;;;;5053798;28;20489;-65
2022/04/04 04:32:43;;;;;;;22.80;11.20;;;5.00;86.00;;;;;;5053378;28;20850;-64
2022/04/04 04:35:12;;;;;;;14.60;9.63;;;5.00;85.80;;;;;;5053573;28;20452;-64
2022/04/04 04:37:39;;;;;;;18.83;10.90;;;5.00;85.90;;;;;;5054139;28;20476;-65
2022/04/04 04:40:07;;;;;;;14.47;9.27;;;5.00;85.60;;;;;;5053291;28;20445;-65
2022/04/04 04:42:34;;;;;;;16.70;10.30;;;5.00;85.20;;;;;;5053442;28;20519;-64
2022/04/04 04:45:02;;;;;;;16.57;9.20;;;5.00;85.60;;;;;;5053182;28;20461;-64
2022/04/04 04:47:29;;;;;;;15.77;10.23;;;5.00;85.40;;;;;;5054545;28;20441;-64
2022/04/04 04:49:56;;;;;;;12.47;9.30;;;4.90;85.40;;;;;;5053440;28;20488;-64
2022/04/04 04:52:24;;;;;;;13.00;8.33;;;4.90;85.50;;;;;;5053202;28;20465;-64
2022/04/04 04:54:51;;;;;;;11.70;8.73;;;4.90;85.70;;;;;;5053308;28;20453;-65
2022/04/04 04:57:18;;;;;;;11.27;7.60;;;4.90;85.80;;;;;;5052859;28;20849;-65
2022/04/04 04:59:45;;;;;;;9.33;7.70;;;4.90;85.70;;;;;;5053106;28;20461;-65
2022/04/04 05:02:12;;;;;;;9.77;8.23;;;4.90;85.60;;;;;;5052838;28;21014;-65
2022/04/04 05:04:39;;;;;;;12.00;8.10;;;4.90;85.60;;;;;;5054149;28;20456;-65
2022/04/04 05:07:07;;;;;;;10.70;8.03;;;4.90;85.70;;;;;;5057297;28;20453;-65
2022/04/04 05:09:36;;;;;;;10.80;8.43;;;4.90;85.50;;;;;;5056971;28;20464;-65
2022/04/04 05:12:04;;;;;;;13.30;9.00;;;4.90;85.80;;;;;;5057100;28;20500;-65
2022/04/04 05:14:30;;;;;;;10.00;7.60;;;4.90;85.80;;;;;;5057188;28;20445;-65
2022/04/04 05:16:57;;;;;;;12.53;7.40;;;5.00;85.40;;;;;;5056755;28;20992;-66
2022/04/04 05:19:24;;;;;;;9.13;8.00;;;5.00;85.30;;;;;;5056785;28;20468;-66
2022/04/04 05:21:51;;;;;;;10.53;7.97;;;5.00;85.30;;;;;;5057054;28;20461;-66
2022/04/04 05:24:19;;;;;;;13.57;8.40;;;5.00;85.10;;;;;;5056999;28;20507;-65
2022/04/04 05:26:47;;;;;;;12.50;7.80;;;5.00;85.20;;;;;;5056996;28;20812;-65
2022/04/04 05:29:17;;;;;;;9.20;7.50;;;5.10;85.50;;;;;;5056932;28;20472;-65
2022/04/04 05:31:44;;;;;;;8.03;6.93;;;5.10;85.10;;;;;;5057219;28;20523;-66
2022/04/04 05:34:11;;;;;;;11.63;7.83;;;5.10;84.50;;;;;;5056687;28;20445;-66
2022/04/04 05:36:37;;;;;;;8.37;6.90;;;5.10;84.40;;;;;;5056731;28;20481;-65
2022/04/04 05:39:05;;;;;;;9.07;7.80;;;5.10;84.30;;;;;;5057886;28;20484;-65
2022/04/04 05:41:34;;;;;;;11.00;6.50;;;5.10;84.40;;;;;;5057801;28;20480;-65
2022/04/04 05:44:02;;;;;;;10.73;6.63;;;5.10;84.40;;;;;;5058471;28;20456;-65
2022/04/04 05:46:29;;;;;;;9.30;6.43;;;5.20;84.40;;;;;;5056984;28;20857;-66
2022/04/04 05:48:55;;;;;;;10.00;6.93;;;5.20;84.10;;;;;;5057305;28;20441;-65
2022/04/04 05:51:22;;;;;;;7.80;7.00;;;5.20;84.40;;;;;;5056672;28;20481;-66
2022/04/04 05:53:49;;;;;;;13.90;7.67;;;5.30;84.70;;;;;;5057166;28;20453;-65
2022/04/04 05:56:16;;;;;;;11.10;7.60;;;5.30;84.30;;;;;;5056797;28;20448;-66
2022/04/04 05:58:42;;;;;;;12.63;7.60;;;5.30;84.60;;;;;;5056638;28;20480;-65
2022/04/04 06:01:11;;;;;;;11.93;7.07;;;5.30;84.70;;;;;;5056416;28;20472;-66
2022/04/04 06:03:38;;;;;;;7.80;6.30;;;5.30;84.70;;;;;;5057081;28;20456;-66
2022/04/04 06:06:05;;;;;;;10.80;7.40;;;5.30;84.50;;;;;;5055880;28;20948;-66
2022/04/04 06:08:31;;;;;;;10.57;6.53;;;5.30;84.90;;;;;;5056413;28;20516;-66
2022/04/04 06:10:58;;;;;;;10.30;6.60;;;5.30;85.30;;;;;;5056834;28;20472;-66
2022/04/04 06:13:25;;;;;;;9.30;7.27;;;5.30;85.20;;;;;;5056027;28;20449;-66
2022/04/04 06:15:52;;;;;;;19.63;6.90;;;5.30;85.00;;;;;;5055993;28;20468;-66
2022/04/04 06:18:20;;;;;;;10.40;7.20;;;5.40;85.00;;;;;;5055954;28;20488;-66
2022/04/04 06:20:47;;;;;;;7.90;6.93;;;5.40;84.90;;;;;;5055934;28;20484;-65
2022/04/04 06:23:14;;;;;;;8.60;6.87;;;5.40;84.50;;;;;;5055982;28;20457;-66
2022/04/04 06:25:41;;;;;;;7.93;6.37;;;5.40;84.90;;;;;;5055916;28;20468;-66
2022/04/04 06:28:10;;;;;;;8.03;7.17;;;5.40;84.80;;;;;;5055711;28;20438;-66
2022/04/04 06:30:37;;;;;;;7.60;6.83;;;5.50;85.10;;;;;;5056023;28;20453;-66
2022/04/04 06:33:08;;;;;;;11.90;7.03;;;5.50;84.70;;;;;;5055896;28;20449;-65
2022/04/04 06:35:36;;;;;;;10.20;6.97;;;5.60;84.90;;;;;;5055940;28;20476;-65
2022/04/04 06:38:03;;;;;;;6.60;6.00;;;5.60;83.80;;;;;;5055609;28;21003;-65
2022/04/04 06:40:31;;;;;;;7.87;5.70;;;5.70;84.30;;;;;;5055684;28;20449;-66
2022/04/04 06:42:58;;;;;;;8.23;5.63;;;5.80;84.40;;;;;;5055836;28;20476;-66
2022/04/04 06:45:25;;;;;;;7.67;6.80;;;5.90;84.30;;;;;;5055514;28;20449;-66
2022/04/04 06:47:53;;;;;;;8.20;6.60;;;6.00;83.50;;;;;;5055525;28;20442;-66
2022/04/04 06:50:20;;;;;;;10.27;6.10;;;6.10;82.70;;;;;;5055407;28;20453;-66
2022/04/04 06:52:48;;;;;;;8.43;6.73;;;6.10;82.50;;;;;;5055366;28;20542;-66
2022/04/04 06:55:16;;;;;;;15.53;6.87;;;6.30;81.90;;;;;;5055311;28;20445;-66
2022/04/04 06:57:43;;;;;;;8.40;7.50;;;6.30;81.50;;;;;;5055133;28;20485;-66
2022/04/04 07:00:12;;;;;;;10.43;6.20;;;6.40;81.30;;;;;;5055241;28;20457;-65
2022/04/04 07:02:38;;;;;;;10.00;6.67;;;6.40;81.60;;;;;;5055224;28;20484;-65
2022/04/04 07:05:08;;;;;;;7.77;6.00;;;6.50;81.00;;;;;;5055304;28;20476;-65
2022/04/04 07:07:35;;;;;;;21.13;8.00;;;6.60;81.10;;;;;;5054963;28;20460;-65
2022/04/04 07:10:03;;;;;;;12.37;7.63;;;6.70;81.60;;;;;;5055099;28;20445;-65
2022/04/04 07:12:30;;;;;;;14.40;7.07;;;6.80;80.60;;;;;;5054901;28;20461;-66
2022/04/04 07:14:58;;;;;;;13.30;6.73;;;6.80;79.70;;;;;;5054959;28;20442;-65
2022/04/04 07:17:24;;;;;;;11.43;6.90;;;6.90;79.60;;;;;;5054866;28;20484;-66
2022/04/04 07:19:52;;;;;;;14.47;6.80;;;7.00;78.90;;;;;;5054508;28;20458;-66
2022/04/04 07:22:19;;;;;;;9.37;6.30;;;7.10;78.40;;;;;;5054724;28;20465;-66
2022/04/04 07:24:46;;;;;;;22.23;7.17;;;7.10;76.60;;;;;;5054560;28;20453;-66
2022/04/04 07:27:14;;;;;;;9.00;6.17;;;7.20;77.10;;;;;;5054479;28;20442;-65
2022/04/04 07:29:42;;;;;;;15.60;7.60;;;7.20;76.30;;;;;;5054719;28;20445;-66
2022/04/04 07:32:09;;;;;;;10.50;5.53;;;7.20;75.10;;;;;;5054543;28;20504;-66
2022/04/04 07:34:36;;;;;;;8.60;6.57;;;7.20;76.10;;;;;;5054706;28;20912;-67
2022/04/04 07:37:04;;;;;;;12.23;6.87;;;7.20;76.00;;;;;;5054436;28;20448;-67
2022/04/04 07:39:31;;;;;;;12.67;6.43;;;7.20;75.20;;;;;;5054458;28;20481;-66
2022/04/04 07:41:58;;;;;;;13.57;6.27;;;7.10;75.20;;;;;;5054309;28;20473;-66
2022/04/04 07:44:26;;;;;;;14.40;6.93;;;7.10;76.50;;;;;;5054404;28;20824;-66
2022/04/04 07:46:53;;;;;;;12.20;6.37;;;7.10;76.00;;;;;;5054421;28;20441;-66
2022/04/04 07:49:20;;;;;;;18.57;6.80;;;7.10;76.20;;;;;;5054284;28;20441;-66
2022/04/04 07:51:47;;;;;;;15.90;6.30;;;7.20;76.30;;;;;;5054181;28;20512;-65
2022/04/04 07:54:14;;;;;;;14.03;6.30;;;7.20;75.50;;;;;;5054321;28;20541;-65
2022/04/04 07:56:41;;;;;;;15.47;6.43;;;7.30;74.90;;;;;;5054123;28;20998;-66
2022/04/04 07:59:08;;;;;;;13.73;6.47;;;7.30;75.00;;;;;;5054111;28;20477;-65
2022/04/04 08:01:36;;;;;;;23.40;6.67;;;7.30;74.90;;;;;;5053976;28;20488;-65
2022/04/04 08:04:03;;;;;;;10.00;5.80;;;7.40;74.40;;;;;;5054321;28;20552;-65
2022/04/04 08:06:30;;;;;;;17.60;6.00;;;7.30;73.60;;;;;;5054503;28;20453;-65
2022/04/04 08:08:57;;;;;;;18.53;6.20;;;7.30;73.50;;;;;;5054246;28;20453;-65
2022/04/04 08:11:23;;;;;;;15.30;5.23;;;7.30;73.30;;;;;;5054091;28;20466;-65
2022/04/04 08:13:50;;;;;;;10.07;6.03;;;7.40;73.80;;;;;;5054006;28;20445;-65
2022/04/04 08:16:17;;;;;;;8.00;6.17;;;7.40;73.40;;;;;;5053992;28;20446;-66
2022/04/04 08:18:45;;;;;;;14.40;6.80;;;7.50;73.80;;;;;;5053343;28;20485;-66
2022/04/04 08:21:12;;;;;;;11.20;6.67;;;7.60;72.70;;;;;;5053479;28;20469;-66
2022/04/04 08:23:39;;;;;;;16.30;5.63;;;7.60;73.00;;;;;;5053794;28;20504;-66
2022/04/04 08:26:06;;;;;;;16.23;6.03;;;7.70;71.60;;;;;;5053869;28;20445;-66
2022/04/04 08:28:33;;;;;;;20.43;5.80;;;7.60;72.00;;;;;;5053681;28;20523;-66
2022/04/04 08:30:59;;;;;;;14.97;5.50;;;7.80;72.40;;;;;;5053523;28;20503;-66
2022/04/04 08:33:27;;;;;;;27.93;6.53;;;7.90;72.80;;;;;;5053318;28;20963;-67
2022/04/04 08:35:56;;;;;;;13.87;6.43;;;7.90;70.50;;;;;;5053585;28;20448;-67
2022/04/04 08:38:22;;;;;;;16.90;5.70;;;7.90;69.90;;;;;;5053213;28;20476;-66
2022/04/04 08:40:50;;;;;;;14.53;6.00;;;7.90;69.80;;;;;;5052722;28;20979;-67
2022/04/04 08:43:19;;;;;;;12.47;5.80;;;7.90;70.40;;;;;;5053210;28;21023;-66
2022/04/04 08:45:48;;;;;;;21.33;8.73;;;7.90;70.40;;;;;;5053501;28;20450;-66
2022/04/04 08:48:15;;;;;;;8.10;5.80;;;8.00;70.00;;;;;;5054237;28;20457;-66
2022/04/04 08:50:42;;;;;;;8.10;5.70;;;8.10;68.80;;;;;;5054141;28;20508;-66
2022/04/04 08:53:11;;;;;;;14.07;5.83;;;8.10;69.20;;;;;;5053737;28;20503;-66
2022/04/04 08:55:38;;;;;;;17.63;6.13;;;8.20;68.00;;;;;;5053346;28;20460;-66
2022/04/04 08:58:05;;;;;;;18.00;7.77;;;8.20;67.20;;;;;;5053160;28;20508;-65
2022/04/04 09:00:33;;;;;;;14.00;6.27;;;8.20;68.70;;;;;;5053083;28;20449;-66
2022/04/04 09:03:02;;;;;;;43.83;7.07;;;8.30;69.00;;;;;;5053083;28;20453;-67
2022/04/04 09:05:31;;;;;;;22.90;5.60;;;8.50;69.30;;;;;;5053294;28;20471;-66
2022/04/04 09:08:05;;;;;;;10.47;6.10;;;8.60;65.70;;;;;;5053190;28;20452;-65
2022/04/04 09:10:36;;;;;;;27.87;6.87;;;8.50;65.50;;;;;;5053162;28;20438;-65
2022/04/04 09:13:11;;;;;;;16.43;6.57;;;8.60;67.60;;;;;;5053141;28;20438;-67
2022/04/04 09:15:57;;;;;;;16.77;5.67;;;8.80;67.10;;;;;;5053780;28;20434;-67
2022/04/04 09:18:43;;;;;;;16.80;5.73;;;8.90;65.10;;;;;;5052135;28;20516;-67
2022/04/04 09:21:12;;;;;;;11.27;5.33;;;8.90;64.20;;;;;;5053028;28;20475;-66
2022/04/04 09:23:54;;;;;;;12.87;6.60;;;8.80;65.80;;;;;;5053090;28;20449;-66
2022/04/04 09:26:33;;;;;;;23.17;6.63;;;8.90;65.20;;;;;;5053148;28;20429;-66
2022/04/04 09:29:01;;;;;;;22.37;6.20;;;8.90;65.80;;;;;;5052892;28;20430;-67
2022/04/04 09:31:29;;;;;;;13.60;5.47;;;8.90;65.30;;;;;;5052825;28;20469;-66
2022/04/04 09:34:00;;;;;;;23.57;5.97;;;8.90;64.80;;;;;;5053000;28;20449;-67
2022/04/04 09:36:26;;;;;;;16.67;7.03;;;8.90;65.50;;;;;;5052942;28;20417;-65
2022/04/04 09:39:03;;;;;;;15.53;5.90;;;8.80;65.70;;;;;;5052661;28;20512;-65
2022/04/04 09:41:32;;;;;;;18.87;6.47;;;8.70;66.00;;;;;;5052556;28;20901;-65
2022/04/04 09:44:02;;;;;;;18.07;6.80;;;8.70;66.50;;;;;;5052611;28;21072;-65
2022/04/04 09:46:33;;;;;;;18.03;6.63;;;8.80;68.40;;;;;;5052868;28;20495;-65
2022/04/04 09:49:09;;;;;;;25.00;7.13;;;8.90;69.10;;;;;;5052560;28;20847;-65
2022/04/04 09:51:38;;;;;;;19.90;6.90;;;8.90;68.30;;;;;;5055174;28;20987;-66
2022/04/04 09:54:06;;;;;;;13.83;6.50;;;8.90;70.50;;;;;;5056143;28;20569;-65
2022/04/04 09:56:34;;;;;;;16.33;7.40;;;9.00;70.60;;;;;;5056035;28;20941;-66
2022/04/04 09:59:02;;;;;;;16.17;7.30;;;9.00;70.50;;;;;;5056299;28;20492;-66
2022/04/04 10:01:30;;;;;;;20.40;7.60;;;8.80;71.70;;;;;;5056167;28;20476;-66
2022/04/04 10:03:57;;;;;;;28.20;7.07;;;8.60;71.70;;;;;;5056358;28;20813;-66
2022/04/04 10:06:28;;;;;;;25.27;7.67;;;8.50;73.50;;;;;;5056346;28;20445;-66
2022/04/04 10:08:57;;;;;;;14.80;7.40;;;8.40;74.50;;;;;;5056312;28;20461;-66
2022/04/04 10:11:25;;;;;;;14.90;7.70;;;8.30;76.80;;;;;;5056115;28;20469;-66
2022/04/04 10:13:54;;;;;;;16.67;8.30;;;8.20;77.40;;;;;;5056362;28;20464;-66
2022/04/04 10:16:23;;;;;;;9.40;7.37;;;8.10;78.40;;;;;;5055872;28;20798;-66
2022/04/04 10:18:50;;;;;;;11.03;7.33;;;8.00;80.60;;;;;;5055446;28;21028;-66
2022/04/04 10:21:18;;;;;;;13.60;8.30;;;7.90;82.60;;;;;;5055586;28;20983;-66
2022/04/04 10:23:45;;;;;;;10.40;7.90;;;7.70;84.20;;;;;;5055909;28;20461;-65
2022/04/04 10:26:15;;;;;;;12.80;7.90;;;7.70;85.90;;;;;;5055665;28;20941;-65
2022/04/04 10:28:44;;;;;;;13.23;7.77;;;7.70;87.30;;;;;;5056019;28;20454;-66
2022/04/04 10:31:20;;;;;;;11.30;8.13;;;7.70;84.70;;;;;;5055758;28;20519;-66
2022/04/04 10:33:47;;;;;;;14.33;8.73;;;7.80;85.30;;;;;;5055654;28;20438;-65
2022/04/04 10:36:20;;;;;;;10.13;8.70;;;7.80;84.00;;;;;;5055724;28;20859;-65
2022/04/04 10:38:49;;;;;;;12.40;9.20;;;7.80;83.20;;;;;;5055537;28;20477;-64
2022/04/04 10:41:18;;;;;;;12.00;7.90;;;7.80;81.80;;;;;;5055211;28;20474;-64
2022/04/04 10:43:48;;;;;;;12.77;8.03;;;7.80;81.40;;;;;;5055633;28;20888;-64
2022/04/04 10:46:18;;;;;;;16.03;8.73;;;7.90;80.20;;;;;;5055541;28;20441;-64
2022/04/04 10:48:49;;;;;;;14.30;8.33;;;7.90;82.30;;;;;;5055404;28;20524;-64
2022/04/04 10:51:17;;;;;;;18.80;8.97;;;8.00;82.10;;;;;;5055567;28;20468;-64
2022/04/04 10:53:47;;;;;;;20.63;8.70;;;8.00;80.00;;;;;;5055225;28;21007;-65
2022/04/04 10:56:19;;;;;;;9.60;7.87;;;8.10;80.40;;;;;;5055142;28;20807;-65
2022/04/04 10:58:46;;;;;;;13.07;8.63;;;8.00;81.00;;;;;;5055255;28;20478;-65
2022/04/04 11:01:16;;;;;;;15.40;10.30;;;8.00;81.00;;;;;;5055202;28;20476;-64
2022/04/04 11:03:58;;;;;;;9.90;7.40;;;8.10;82.10;;;;;;5055273;28;20438;-65
2022/04/04 11:09:32;;;;;;;17.13;9.20;;;8.10;84.10;;;;;;5055009;28;20439;-65
2022/04/04 11:12:11;;;;;;;9.70;7.87;;;7.80;84.90;;;;;;5054967;28;20471;-64
2022/04/04 11:14:43;;;;;;;11.03;9.50;;;7.60;87.40;;;;;;5055110;28;20441;-64
2022/04/04 11:17:23;;;;;;;11.83;8.70;;;7.60;90.20;;;;;;5054805;28;20445;-64
2022/04/04 11:19:53;;;;;;;10.70;9.60;;;7.40;90.00;;;;;;5054399;28;20489;-64
2022/04/04 11:22:22;;;;;;;9.40;8.43;;;7.20;91.00;;;;;;5054941;28;20524;-63
2022/04/04 11:24:53;;;;;;;9.30;8.30;;;7.10;91.60;;;;;;5054440;28;21023;-63
2022/04/04 11:27:20;;;;;;;14.93;10.13;;;7.00;92.80;;;;;;5054715;28;20449;-62
2022/04/04 11:29:47;;;;;;;10.90;9.80;;;7.10;93.30;;;;;;5054557;28;20452;-63
2022/04/04 11:32:16;;;;;;;11.00;9.30;;;7.10;93.40;;;;;;5054493;28;20472;-63
2022/04/04 11:34:44;;;;;;;11.37;9.47;;;7.00;93.50;;;;;;5054586;28;20494;-63
2022/04/04 11:37:19;;;;;;;11.23;10.03;;;7.10;94.10;;;;;;5054432;28;20454;-63
2022/04/04 11:39:47;;;;;;;9.60;8.60;;;6.90;93.70;;;;;;5054370;28;20886;-63
2022/04/04 11:42:14;;;;;;;9.10;8.20;;;6.70;94.60;;;;;;5053961;28;20989;-63
2022/04/04 11:44:48;;;;;;;12.87;10.97;;;6.60;95.30;;;;;;5054491;28;20503;-62
2022/04/04 11:47:17;;;;;;;13.67;11.10;;;6.60;96.40;;;;;;5054374;28;20454;-62
2022/04/04 11:49:46;;;;;;;11.57;10.40;;;6.60;96.70;;;;;;5054474;28;20450;-62
2022/04/04 11:52:18;;;;;;;13.67;10.47;;;6.50;96.80;;;;;;5054197;28;20477;-62
2022/04/04 11:54:49;;;;;;;12.83;11.50;;;6.40;96.80;;;;;;5054099;28;20442;-62
2022/04/04 11:57:17;;;;;;;11.30;10.10;;;6.30;97.40;;;;;;5054121;28;20468;-64
2022/04/04 11:59:45;;;;;;;11.60;10.40;;;6.30;97.10;;;;;;5053807;28;20477;-63
2022/04/04 12:02:13;;;;;;;12.50;10.40;;;6.30;97.70;;;;;;5054159;28;20473;-63
2022/04/04 12:04:43;;;;;;;11.43;9.80;;;6.30;97.80;;;;;;5054032;28;20544;-63
2022/04/04 12:07:12;;;;;;;12.70;10.50;;;6.40;98.10;;;;;;5053938;28;20455;-63
2022/04/04 12:09:42;;;;;;;12.27;11.07;;;6.30;98.30;;;;;;5052824;28;20445;-63
2022/04/04 12:12:13;;;;;;;11.90;10.60;;;6.30;98.30;;;;;;5055753;28;20477;-63
2022/04/04 12:14:42;;;;;;;11.03;9.93;;;6.30;98.60;;;;;;5054072;28;20437;-63
2022/04/04 12:17:11;;;;;;;10.13;8.63;;;6.30;98.70;;;;;;5054089;28;20811;-63
2022/04/04 12:19:42;;;;;;;9.30;8.43;;;6.30;98.30;;;;;;5052249;28;20473;-63
2022/04/04 12:24:59;;;;;;;11.33;8.63;;;6.20;98.40;;;;;;5053563;28;20445;-62
2022/04/04 12:27:26;;;;;;;10.47;9.50;;;6.20;98.80;;;;;;5053515;28;21005;-62
2022/04/04 12:29:59;;;;;;;11.67;10.60;;;6.10;99.10;;;;;;5053794;28;20822;-62
2022/04/04 12:32:27;;;;;;;11.57;10.43;;;6.20;99.70;;;;;;5053579;28;20527;-63
2022/04/04 12:34:58;;;;;;;10.73;9.63;;;6.30;99.60;;;;;;5053078;28;20787;-63
2022/04/04 12:37:39;;;;;;;13.77;11.43;;;6.30;99.60;;;;;;5053169;28;20458;-63
2022/04/04 12:40:15;;;;;;;11.20;10.00;;;6.40;99.80;;;;;;5053408;28;20543;-63
2022/04/04 12:42:43;;;;;;;13.37;9.80;;;6.40;99.40;;;;;;5053251;28;20469;-63
2022/04/04 12:45:12;;;;;;;12.40;10.77;;;6.50;99.20;;;;;;5053231;28;20920;-63
2022/04/04 12:48:00;;;;;;;12.80;10.30;;;6.50;98.90;;;;;;5053478;28;20454;-63
2022/04/04 12:50:38;;;;;;;12.17;10.30;;;6.50;99.50;;;;;;5053442;28;20521;-63
2022/04/04 12:53:07;;;;;;;11.63;10.43;;;6.40;99.90;;;;;;5053414;28;20465;-63
2022/04/04 12:55:38;;;;;;;10.87;9.80;;;6.40;99.90;;;;;;5053285;28;20450;-64
2022/04/04 12:58:20;;;;;;;10.60;9.50;;;6.50;99.90;;;;;;5053070;28;20920;-63
2022/04/04 13:00:48;;;;;;;11.33;10.23;;;6.60;99.50;;;;;;5053776;28;21004;-63